Time;durP1;ratioP1;P1;durP2;ratioP2;P2;SDS_P1;SDS_P2;PMS_P1;PMS_P2;Temp;Humidity;BMP_temperature;BMP_pressure;BME280_temperature;BME280_humidity;BME280_pressure;Samples;Min_cycle;Max_cycle;Signal;HPM_P1;HPM_P2
2023/03/01 00:01:02;;;;;;;14.87;11.43;;;0.90;99.90;;;;;;5075061;28;20635;-79
2023/03/01 00:03:29;;;;;;;16.10;11.87;;;0.90;99.90;;;;;;5072376;28;20178;-79
2023/03/01 00:05:56;;;;;;;16.13;11.27;;;0.90;99.90;;;;;;5054541;28;20232;-80
2023/03/01 00:08:22;;;;;;;15.87;12.53;;;1.00;99.90;;;;;;5055363;28;20198;-77
2023/03/01 00:10:49;;;;;;;14.07;11.57;;;1.00;99.90;;;;;;5055374;28;20288;-79
2023/03/01 00:13:16;;;;;;;13.63;10.87;;;1.00;99.90;;;;;;5053818;28;20216;-77
2023/03/01 00:15:44;;;;;;;16.53;11.97;;;1.00;99.90;;;;;;5054923;28;20194;-77
2023/03/01 00:18:11;;;;;;;16.83;11.10;;;1.00;99.90;;;;;;5054743;28;20210;-76
2023/03/01 00:20:38;;;;;;;15.27;11.50;;;1.00;99.90;;;;;;5054406;28;20216;-77
2023/03/01 00:23:05;;;;;;;18.07;12.00;;;1.00;99.90;;;;;;5055497;28;20202;-77
2023/03/01 00:25:32;;;;;;;14.80;11.03;;;1.00;99.90;;;;;;5054837;28;20216;-78
2023/03/01 00:27:59;;;;;;;15.17;10.40;;;0.90;99.90;;;;;;5053884;28;20190;-75
2023/03/01 00:30:26;;;;;;;14.23;12.03;;;0.90;99.90;;;;;;5054644;28;20281;-75
2023/03/01 00:32:54;;;;;;;18.43;11.67;;;0.80;99.90;;;;;;5054116;28;20202;-77
2023/03/01 00:35:22;;;;;;;17.90;12.13;;;0.80;99.90;;;;;;5054588;28;20657;-74
2023/03/01 00:37:53;;;;;;;15.97;12.30;;;0.80;99.90;;;;;;5053297;28;20213;-74
2023/03/01 00:40:20;;;;;;;14.87;11.60;;;0.70;99.90;;;;;;5053444;28;20308;-75
2023/03/01 00:42:47;;;;;;;14.33;11.07;;;0.70;99.90;;;;;;5054819;28;20285;-75
2023/03/01 00:45:13;;;;;;;14.47;10.67;;;0.70;99.90;;;;;;5054619;28;20308;-74
2023/03/01 00:47:40;;;;;;;15.00;11.80;;;0.60;99.90;;;;;;5068971;28;20211;-76
2023/03/01 00:50:10;;;;;;;15.87;10.90;;;0.50;99.90;;;;;;5074378;28;20284;-76
2023/03/01 00:52:38;;;;;;;15.47;10.37;;;0.50;99.90;;;;;;5073956;28;20202;-76
2023/03/01 00:55:06;;;;;;;14.67;10.80;;;0.50;99.90;;;;;;5073561;28;20589;-76
2023/03/01 00:57:33;;;;;;;13.67;10.17;;;0.40;99.90;;;;;;5057530;28;20305;-76
2023/03/01 01:00:00;;;;;;;14.87;11.00;;;0.40;99.90;;;;;;5053880;28;20302;-77
2023/03/01 01:02:27;;;;;;;14.33;10.57;;;0.40;99.90;;;;;;5053295;28;20498;-76
2023/03/01 01:04:54;;;;;;;13.20;9.90;;;0.30;99.90;;;;;;5053439;28;20618;-78
2023/03/01 01:07:22;;;;;;;20.03;12.33;;;0.30;99.90;;;;;;5053972;28;20695;-75
2023/03/01 01:09:49;;;;;;;16.60;11.97;;;0.30;99.90;;;;;;5053464;28;20285;-74
2023/03/01 01:12:16;;;;;;;15.73;11.67;;;0.20;99.90;;;;;;5054523;28;20284;-74
2023/03/01 01:14:43;;;;;;;15.13;10.23;;;0.20;99.90;;;;;;5054396;28;20206;-75
2023/03/01 01:17:10;;;;;;;14.67;10.80;;;0.10;99.90;;;;;;5053318;28;20745;-74
2023/03/01 01:19:37;;;;;;;14.10;11.43;;;0.10;99.90;;;;;;5053458;28;20590;-75
2023/03/01 01:22:04;;;;;;;14.43;11.10;;;0.10;99.90;;;;;;5053136;28;20352;-75
2023/03/01 01:24:32;;;;;;;13.70;10.33;;;0.10;99.90;;;;;;5053776;28;20205;-74
2023/03/01 01:26:59;;;;;;;16.07;11.83;;;0.10;99.90;;;;;;5053489;28;20221;-74
2023/03/01 01:29:26;;;;;;;15.63;10.87;;;0.00;99.90;;;;;;5052467;28;20205;-74
2023/03/01 01:31:52;;;;;;;16.57;11.77;;;0.00;99.90;;;;;;5053702;28;20594;-78
2023/03/01 01:34:22;;;;;;;16.03;11.07;;;0.00;99.90;;;;;;5053321;28;20202;-75
2023/03/01 01:36:50;;;;;;;15.30;11.63;;;0.00;99.90;;;;;;5052807;28;20210;-76
2023/03/01 01:39:18;;;;;;;14.57;10.90;;;0.00;99.90;;;;;;5053090;28;20214;-75
2023/03/01 01:41:46;;;;;;;14.53;11.10;;;-0.10;99.90;;;;;;5053211;28;21040;-74
2023/03/01 01:44:19;;;;;;;14.67;11.03;;;-0.10;99.90;;;;;;5052967;28;20285;-75
2023/03/01 01:46:49;;;;;;;13.17;10.37;;;-0.10;99.90;;;;;;5053251;28;20221;-76
2023/03/01 01:49:32;;;;;;;13.00;9.47;;;-0.10;99.90;;;;;;5052915;28;20233;-78
2023/03/01 01:52:05;;;;;;;16.40;10.63;;;-0.10;99.90;;;;;;5052538;28;20320;-74
2023/03/01 01:54:39;;;;;;;15.20;11.07;;;-0.20;99.90;;;;;;5053030;28;20578;-74
2023/03/01 01:57:12;;;;;;;13.87;10.70;;;-0.20;99.90;;;;;;5053098;28;20847;-75
2023/03/01 01:59:41;;;;;;;14.30;10.77;;;-0.20;99.90;;;;;;5052643;28;20206;-74
2023/03/01 02:02:08;;;;;;;14.80;11.07;;;-0.30;99.90;;;;;;5052958;28;20492;-73
2023/03/01 02:04:35;;;;;;;16.47;12.60;;;-0.30;99.90;;;;;;5052461;28;20202;-75
2023/03/01 02:07:08;;;;;;;17.53;12.77;;;-0.30;99.90;;;;;;5052622;28;20260;-75
2023/03/01 02:09:36;;;;;;;19.57;11.97;;;-0.30;99.90;;;;;;5052944;28;20880;-75
2023/03/01 02:12:04;;;;;;;15.30;11.70;;;-0.40;99.90;;;;;;5051803;28;20220;-76
2023/03/01 02:14:32;;;;;;;19.03;13.00;;;-0.40;99.90;;;;;;5053089;28;20205;-75
2023/03/01 02:16:59;;;;;;;16.90;11.73;;;-0.40;99.90;;;;;;5052563;28;20482;-75
2023/03/01 02:19:38;;;;;;;18.70;12.87;;;-0.40;99.90;;;;;;5051951;28;20197;-74
2023/03/01 02:22:18;;;;;;;17.87;12.93;;;-0.40;99.90;;;;;;5053165;28;20312;-73
2023/03/01 02:24:53;;;;;;;17.13;12.60;;;-0.50;99.90;;;;;;5052460;28;20194;-76
2023/03/01 02:27:26;;;;;;;18.33;12.47;;;-0.50;99.90;;;;;;5051970;28;20292;-75
2023/03/01 02:29:55;;;;;;;19.93;13.53;;;-0.40;99.90;;;;;;5066949;28;20585;-75
2023/03/01 02:32:24;;;;;;;17.60;12.70;;;-0.50;99.90;;;;;;5071473;28;20225;-74
2023/03/01 02:34:52;;;;;;;14.63;12.13;;;-0.50;99.90;;;;;;5068024;28;20202;-73
2023/03/01 02:37:24;;;;;;;19.00;12.60;;;-0.50;99.90;;;;;;5052190;28;20656;-73
2023/03/01 02:39:57;;;;;;;18.13;12.20;;;-0.50;99.90;;;;;;5052007;28;20226;-73
2023/03/01 02:42:29;;;;;;;16.23;11.93;;;-0.50;99.90;;;;;;5052087;28;20570;-74
2023/03/01 02:44:57;;;;;;;16.00;11.47;;;-0.60;99.90;;;;;;5061471;28;20197;-75
2023/03/01 02:47:24;;;;;;;17.73;12.60;;;-0.60;99.90;;;;;;5071434;28;20270;-73
2023/03/01 02:49:51;;;;;;;17.90;12.57;;;-0.60;99.90;;;;;;5072353;28;20236;-74
2023/03/01 02:52:35;;;;;;;16.97;12.10;;;-0.60;99.90;;;;;;5069143;28;20252;-75
2023/03/01 02:55:06;;;;;;;14.50;10.77;;;-0.60;99.90;;;;;;5051404;28;20178;-74
2023/03/01 02:57:35;;;;;;;14.90;10.47;;;-0.70;99.90;;;;;;5051980;28;20202;-80
2023/03/01 03:00:07;;;;;;;18.37;13.17;;;-0.70;99.90;;;;;;5051397;28;20210;-76
2023/03/01 03:02:38;;;;;;;16.87;12.93;;;-0.70;99.90;;;;;;5051505;28;20190;-74
2023/03/01 03:05:09;;;;;;;16.03;11.57;;;-0.70;99.90;;;;;;5070013;28;20605;-79
2023/03/01 03:07:37;;;;;;;19.30;12.87;;;-0.70;99.90;;;;;;5071426;28;20213;-79
2023/03/01 03:10:07;;;;;;;18.13;13.17;;;-0.70;99.90;;;;;;5071729;28;20292;-77
2023/03/01 03:12:34;;;;;;;15.93;11.87;;;-0.80;99.90;;;;;;5056074;28;20206;-76
2023/03/01 03:15:00;;;;;;;20.13;13.67;;;-0.80;99.90;;;;;;5051500;28;20507;-78
2023/03/01 03:17:29;;;;;;;20.77;14.13;;;-0.80;99.90;;;;;;5051641;28;20196;-76
2023/03/01 03:19:55;;;;;;;18.90;13.10;;;-0.80;99.90;;;;;;5051793;28;20297;-77
2023/03/01 03:22:22;;;;;;;17.67;12.87;;;-0.80;99.90;;;;;;5051466;28;20496;-78
2023/03/01 03:24:49;;;;;;;19.20;13.93;;;-0.80;99.90;;;;;;5051596;28;20209;-76
2023/03/01 03:27:16;;;;;;;23.83;14.33;;;-0.90;99.90;;;;;;5052250;28;20534;-78
2023/03/01 03:29:43;;;;;;;22.07;14.57;;;-0.90;99.90;;;;;;5051011;28;20298;-81
2023/03/01 03:32:10;;;;;;;21.37;14.37;;;-0.90;99.90;;;;;;5051666;28;20300;-78
2023/03/01 03:34:38;;;;;;;21.10;14.03;;;-0.90;99.90;;;;;;5051767;28;20759;-80
2023/03/01 03:38:01;;;;;;;19.87;13.70;;;-0.90;99.90;;;;;;5051317;28;20198;-76
2023/03/01 03:39:54;;;;;;;19.63;14.07;;;-0.90;99.90;;;;;;5051136;28;20217;-76
2023/03/01 03:42:22;;;;;;;19.13;13.97;;;-0.90;99.90;;;;;;5051597;28;20209;-74
2023/03/01 03:44:49;;;;;;;21.03;14.57;;;-0.90;99.90;;;;;;5050934;28;20446;-77
2023/03/01 03:47:16;;;;;;;21.17;14.57;;;-0.90;99.90;;;;;;5051513;28;20249;-75
2023/03/01 03:49:44;;;;;;;24.00;15.87;;;-1.00;99.90;;;;;;5050372;28;20357;-79
2023/03/01 03:52:13;;;;;;;20.23;15.03;;;-1.00;99.90;;;;;;5051615;28;20226;-74
2023/03/01 03:54:40;;;;;;;22.60;14.73;;;-1.00;99.90;;;;;;5050968;28;20213;-76
2023/03/01 03:57:08;;;;;;;21.20;14.23;;;-1.00;99.90;;;;;;5051052;28;20194;-74
2023/03/01 03:59:35;;;;;;;18.57;13.40;;;-1.00;99.90;;;;;;5051014;28;20200;-74
2023/03/01 04:02:01;;;;;;;19.23;13.93;;;-1.00;99.90;;;;;;5051906;28;20215;-78
2023/03/01 04:04:28;;;;;;;21.23;14.93;;;-1.00;99.90;;;;;;5051038;28;20190;-75
2023/03/01 04:06:56;;;;;;;20.67;14.53;;;-1.00;99.90;;;;;;5051417;28;20754;-74
2023/03/01 04:09:23;;;;;;;21.50;14.77;;;-1.00;99.90;;;;;;5051422;28;20194;-73
2023/03/01 04:11:50;;;;;;;19.13;14.00;;;-1.10;99.90;;;;;;5053285;28;20279;-76
2023/03/01 04:14:17;;;;;;;22.03;15.07;;;-1.10;99.90;;;;;;5054948;28;20198;-76
2023/03/01 04:16:44;;;;;;;20.93;15.10;;;-1.10;99.90;;;;;;5055225;28;20407;-74
2023/03/01 04:19:11;;;;;;;22.20;14.80;;;-1.10;99.90;;;;;;5054114;28;20202;-74
2023/03/01 04:21:38;;;;;;;19.37;14.40;;;-1.10;99.90;;;;;;5055007;28;20563;-73
2023/03/01 04:24:06;;;;;;;22.77;13.87;;;-1.10;99.90;;;;;;5054983;28;20293;-74
2023/03/01 04:26:33;;;;;;;21.90;14.97;;;-1.10;99.90;;;;;;5053770;28;20221;-77
2023/03/01 04:29:00;;;;;;;22.17;14.60;;;-1.10;99.90;;;;;;5054924;28;20227;-73
2023/03/01 04:31:28;;;;;;;20.03;14.33;;;-1.10;99.90;;;;;;5055226;28;20206;-80
2023/03/01 04:33:56;;;;;;;19.93;14.53;;;-1.10;99.90;;;;;;5055330;28;20280;-79
2023/03/01 04:36:25;;;;;;;18.87;13.70;;;-1.10;99.90;;;;;;5068793;28;20271;-78
2023/03/01 04:38:52;;;;;;;18.57;12.73;;;-1.10;99.90;;;;;;5074962;28;20197;-80
2023/03/01 04:41:22;;;;;;;18.27;12.77;;;-1.20;99.90;;;;;;5073988;28;20307;-82
2023/03/01 04:43:49;;;;;;;18.87;13.33;;;-1.20;99.90;;;;;;5075281;28;20193;-76
2023/03/01 04:46:18;;;;;;;18.27;13.03;;;-1.20;99.90;;;;;;5074147;28;20197;-74
2023/03/01 04:48:46;;;;;;;20.80;14.33;;;-1.20;99.90;;;;;;5074612;28;20185;-76
2023/03/01 04:51:13;;;;;;;18.63;12.93;;;-1.20;99.90;;;;;;5055947;28;20244;-81
2023/03/01 04:53:41;;;;;;;16.20;12.23;;;-1.30;99.90;;;;;;5054126;28;20281;-81
2023/03/01 04:56:08;;;;;;;19.13;13.10;;;-1.30;99.90;;;;;;5054934;28;20273;-80
2023/03/01 04:58:37;;;;;;;20.13;13.70;;;-1.30;99.90;;;;;;5054475;28;20604;-80
2023/03/01 05:01:15;;;;;;;20.33;14.03;;;-1.30;99.90;;;;;;5055839;28;20682;-80
2023/03/01 05:03:42;;;;;;;19.50;13.67;;;-1.30;99.90;;;;;;5075043;28;20470;-79
2023/03/01 05:06:10;;;;;;;19.07;13.67;;;-1.30;99.90;;;;;;5065297;28;20259;-81
2023/03/01 05:08:37;;;;;;;19.13;13.70;;;-1.30;99.90;;;;;;5053999;28;20204;-81
2023/03/01 05:11:08;;;;;;;20.07;13.97;;;-1.40;99.90;;;;;;5071214;28;20228;-81
2023/03/01 05:13:38;;;;;;;19.77;13.83;;;-1.40;99.90;;;;;;5074673;28;20193;-80
2023/03/01 05:16:10;;;;;;;19.77;13.80;;;-1.40;99.90;;;;;;5072336;28;20213;-79
2023/03/01 05:18:38;;;;;;;18.83;13.90;;;-1.40;99.90;;;;;;5054364;28;20598;-80
2023/03/01 05:21:07;;;;;;;20.17;14.37;;;-1.40;99.90;;;;;;5054638;28;20216;-85
2023/03/01 05:23:34;;;;;;;20.60;14.53;;;-1.40;99.90;;;;;;5053478;28;20204;-80
2023/03/01 05:26:03;;;;;;;19.03;13.43;;;-1.40;99.90;;;;;;5054438;28;20209;-82
2023/03/01 05:28:31;;;;;;;21.90;14.87;;;-1.40;99.90;;;;;;5053154;28;20226;-81
2023/03/01 05:30:59;;;;;;;21.37;15.03;;;-1.40;99.90;;;;;;5053728;28;20201;-81
2023/03/01 05:33:27;;;;;;;20.60;14.27;;;-1.40;99.90;;;;;;5053184;28;20509;-80
2023/03/01 05:35:54;;;;;;;21.40;15.43;;;-1.50;99.90;;;;;;5053908;28;20206;-81
2023/03/01 05:38:22;;;;;;;21.67;15.13;;;-1.50;99.90;;;;;;5054445;28;20246;-82
2023/03/01 05:40:50;;;;;;;22.63;15.30;;;-1.50;99.90;;;;;;5054717;28;20308;-80
2023/03/01 05:43:18;;;;;;;22.13;15.53;;;-1.40;99.90;;;;;;5053345;28;20292;-81
2023/03/01 05:45:45;;;;;;;24.50;16.23;;;-1.40;99.90;;;;;;5054531;28;20288;-81
2023/03/01 05:48:15;;;;;;;23.83;16.07;;;-1.40;99.90;;;;;;5054266;28;20512;-82
2023/03/01 05:50:43;;;;;;;23.90;16.03;;;-1.40;99.90;;;;;;5053872;28;20230;-81
2023/03/01 05:53:13;;;;;;;25.83;16.70;;;-1.40;99.90;;;;;;5054230;28;20240;-82
2023/03/01 05:55:40;;;;;;;25.10;16.77;;;-1.40;99.90;;;;;;5054234;28;20288;-78
2023/03/01 05:58:10;;;;;;;24.80;17.50;;;-1.40;99.90;;;;;;5053400;28;20202;-82
2023/03/01 06:00:37;;;;;;;24.60;16.83;;;-1.40;99.90;;;;;;5053513;28;20513;-82
2023/03/01 06:03:04;;;;;;;24.13;16.33;;;-1.40;99.90;;;;;;5069350;28;20201;-82
2023/03/01 06:05:33;;;;;;;22.83;16.23;;;-1.50;99.90;;;;;;5073529;28;20284;-82
2023/03/01 06:08:00;;;;;;;23.73;16.20;;;-1.50;99.90;;;;;;5074339;28;20312;-82
2023/03/01 06:10:28;;;;;;;25.30;17.23;;;-1.50;99.90;;;;;;5053858;28;20291;-82
2023/03/01 06:12:55;;;;;;;26.03;17.27;;;-1.50;99.90;;;;;;5053729;28;20285;-81
2023/03/01 06:15:22;;;;;;;21.97;15.93;;;-1.50;99.90;;;;;;5065904;28;20292;-82
2023/03/01 06:17:49;;;;;;;24.77;16.73;;;-1.50;99.90;;;;;;5073344;28;20284;-81
2023/03/01 06:20:18;;;;;;;24.83;17.10;;;-1.50;99.90;;;;;;5073776;28;20240;-81
2023/03/01 06:22:48;;;;;;;23.80;16.17;;;-1.50;99.90;;;;;;5073573;28;20208;-83
2023/03/01 06:25:17;;;;;;;25.93;17.30;;;-1.40;99.90;;;;;;5057244;28;20244;-75
2023/03/01 06:27:45;;;;;;;24.83;16.20;;;-1.40;99.90;;;;;;5053697;28;20232;-82
2023/03/01 06:30:13;;;;;;;27.73;18.30;;;-1.40;99.90;;;;;;5053802;28;20237;-83
2023/03/01 06:32:41;;;;;;;35.40;20.27;;;-1.40;99.90;;;;;;5053304;28;20309;-84
2023/03/01 06:35:09;;;;;;;34.70;20.80;;;-1.40;99.90;;;;;;5053609;28;20233;-81
2023/03/01 06:37:36;;;;;;;33.47;20.00;;;-1.40;99.90;;;;;;5054033;28;20608;-81
2023/03/01 06:40:07;;;;;;;32.33;19.87;;;-1.40;99.90;;;;;;5053266;28;20218;-82
2023/03/01 06:42:35;;;;;;;38.50;22.93;;;-1.40;99.90;;;;;;5053599;28;20202;-83
2023/03/01 06:45:02;;;;;;;59.30;20.70;;;-1.40;99.90;;;;;;5053363;28;20585;-82
2023/03/01 06:47:28;;;;;;;38.97;19.17;;;-1.40;99.90;;;;;;5052979;28;20232;-83
2023/03/01 06:49:55;;;;;;;27.67;17.63;;;-1.30;99.90;;;;;;5056677;28;20293;-81
2023/03/01 06:52:22;;;;;;;127.90;24.10;;;-1.30;99.90;;;;;;5073155;28;20288;-82
2023/03/01 06:54:49;;;;;;;24.83;16.90;;;-1.20;99.90;;;;;;5072613;28;20205;-82
2023/03/01 06:57:17;;;;;;;24.23;16.97;;;-1.20;99.90;;;;;;5073056;28;20196;-76
2023/03/01 06:59:44;;;;;;;28.30;18.23;;;-1.20;99.90;;;;;;5071043;28;20205;-82
2023/03/01 07:02:12;;;;;;;23.17;17.13;;;-1.20;99.90;;;;;;5072966;28;20293;-80
2023/03/01 07:04:39;;;;;;;25.23;17.27;;;-1.20;99.90;;;;;;5058503;28;20201;-81
2023/03/01 07:07:06;;;;;;;26.97;18.20;;;-1.20;99.90;;;;;;5052705;28;20217;-79
2023/03/01 07:09:33;;;;;;;25.77;18.03;;;-1.20;99.90;;;;;;5068896;28;20208;-73
2023/03/01 07:12:00;;;;;;;23.40;16.83;;;-1.20;99.90;;;;;;5068794;28;20206;-78
2023/03/01 07:14:28;;;;;;;23.13;16.90;;;-1.10;99.90;;;;;;5052110;28;20721;-76
2023/03/01 07:16:56;;;;;;;23.70;17.57;;;-1.10;99.90;;;;;;5052050;28;20233;-76
2023/03/01 07:19:23;;;;;;;25.77;18.03;;;-1.10;99.90;;;;;;5056788;28;20283;-79
2023/03/01 07:21:50;;;;;;;23.33;17.53;;;-1.00;99.90;;;;;;5071486;28;20204;-79
2023/03/01 07:24:16;;;;;;;24.83;16.53;;;-1.00;99.90;;;;;;5070909;28;20250;-79
2023/03/01 07:26:43;;;;;;;28.90;18.43;;;-1.00;99.90;;;;;;5069296;28;20208;-79
2023/03/01 07:29:11;;;;;;;26.93;17.80;;;-0.90;99.90;;;;;;5071232;28;20221;-78
2023/03/01 07:31:39;;;;;;;26.20;18.67;;;-0.90;99.90;;;;;;5066516;28;20205;-80
2023/03/01 07:34:06;;;;;;;31.37;20.30;;;-0.80;99.90;;;;;;5071213;28;20201;-80
2023/03/01 07:36:33;;;;;;;28.40;19.37;;;-0.70;99.90;;;;;;5070394;28;20284;-79
2023/03/01 07:39:02;;;;;;;31.00;19.53;;;-0.70;99.90;;;;;;5066194;28;20197;-80
2023/03/01 07:41:29;;;;;;;29.17;20.30;;;-0.60;99.90;;;;;;5057514;28;20279;-80
2023/03/01 07:43:56;;;;;;;30.93;20.73;;;-0.50;99.90;;;;;;5071280;28;20205;-80
2023/03/01 07:46:23;;;;;;;27.90;19.87;;;-0.50;99.90;;;;;;5067226;28;20200;-79
2023/03/01 07:48:51;;;;;;;31.03;20.70;;;-0.40;99.90;;;;;;5072157;28;20231;-79
2023/03/01 07:51:18;;;;;;;31.17;20.43;;;-0.30;99.90;;;;;;5068117;28;20225;-80
2023/03/01 07:53:47;;;;;;;35.40;23.53;;;-0.30;99.90;;;;;;5055340;28;20746;-79
2023/03/01 07:56:17;;;;;;;31.43;20.90;;;-0.20;99.90;;;;;;5054669;28;20209;-80
2023/03/01 07:58:45;;;;;;;32.50;22.70;;;-0.10;99.90;;;;;;5055781;28;20197;-79
2023/03/01 08:01:15;;;;;;;38.17;23.40;;;0.10;99.90;;;;;;5055374;28;20273;-78
2023/03/01 08:03:43;;;;;;;35.90;23.93;;;0.20;99.90;;;;;;5061211;28;20736;-79
2023/03/01 08:06:12;;;;;;;37.57;25.10;;;0.30;99.90;;;;;;5073723;28;20231;-83
2023/03/01 08:08:39;;;;;;;41.73;25.63;;;0.50;99.90;;;;;;5074866;28;20274;-78
2023/03/01 08:11:08;;;;;;;37.43;23.97;;;0.60;99.90;;;;;;5062417;28;20202;-80
2023/03/01 08:13:35;;;;;;;37.43;26.10;;;0.70;99.90;;;;;;5074929;28;20205;-79
2023/03/01 08:16:03;;;;;;;37.13;24.10;;;0.70;99.90;;;;;;5067526;28;20202;-78
2023/03/01 08:18:30;;;;;;;37.07;24.73;;;0.80;99.90;;;;;;5053897;28;20252;-80
2023/03/01 08:21:01;;;;;;;45.97;27.90;;;0.90;99.90;;;;;;5055076;28;20289;-79
2023/03/01 08:23:30;;;;;;;42.47;26.60;;;1.00;99.90;;;;;;5054708;28;20204;-78
2023/03/01 08:26:05;;;;;;;42.77;27.70;;;1.10;99.90;;;;;;5053946;28;20202;-79
2023/03/01 08:28:31;;;;;;;43.63;27.07;;;1.20;99.90;;;;;;5054713;28;20300;-80
2023/03/01 08:30:59;;;;;;;42.30;26.03;;;1.20;99.90;;;;;;5054521;28;20680;-79
2023/03/01 08:33:26;;;;;;;42.00;28.90;;;1.30;99.90;;;;;;5054026;28;20198;-79
2023/03/01 08:35:52;;;;;;;41.10;26.33;;;1.40;99.90;;;;;;5055077;28;20190;-77
2023/03/01 08:38:19;;;;;;;45.23;27.43;;;1.50;99.90;;;;;;5053866;28;20202;-80
2023/03/01 08:40:47;;;;;;;43.00;25.90;;;1.60;99.90;;;;;;5054534;28;20234;-79
2023/03/01 08:43:14;;;;;;;44.17;26.30;;;1.70;99.90;;;;;;5054455;28;20566;-79
2023/03/01 08:45:41;;;;;;;38.80;26.13;;;1.70;99.90;;;;;;5054012;28;20273;-79
2023/03/01 08:48:08;;;;;;;38.20;27.37;;;1.80;99.90;;;;;;5062549;28;20224;-75
2023/03/01 08:50:35;;;;;;;40.23;27.50;;;1.90;99.90;;;;;;5073431;28;20243;-78
2023/03/01 08:53:02;;;;;;;39.60;24.67;;;1.90;99.90;;;;;;5073896;28;20238;-80
2023/03/01 08:55:29;;;;;;;41.50;27.23;;;2.00;99.90;;;;;;5056425;28;20244;-78
2023/03/01 08:57:58;;;;;;;41.50;26.93;;;2.00;99.90;;;;;;5058128;28;20193;-78
2023/03/01 09:00:25;;;;;;;39.87;27.90;;;2.10;99.90;;;;;;5071378;28;20216;-80
2023/03/01 09:02:52;;;;;;;42.47;28.43;;;2.10;99.90;;;;;;5074597;28;20198;-81
2023/03/01 09:05:19;;;;;;;40.10;26.80;;;2.30;99.90;;;;;;5074332;28;20276;-80
2023/03/01 09:07:46;;;;;;;40.60;27.20;;;2.40;99.90;;;;;;5073180;28;20249;-80
2023/03/01 09:10:13;;;;;;;43.73;29.73;;;2.40;99.90;;;;;;5062783;28;20217;-80
2023/03/01 09:12:40;;;;;;;46.03;28.67;;;2.50;99.90;;;;;;5053917;28;20214;-79
2023/03/01 09:15:10;;;;;;;45.23;27.77;;;2.60;99.90;;;;;;5053481;28;20208;-79
2023/03/01 09:17:37;;;;;;;42.10;27.23;;;2.70;99.90;;;;;;5053723;28;20224;-80
2023/03/01 09:20:05;;;;;;;44.77;27.67;;;2.80;99.90;;;;;;5054386;28;20193;-79
2023/03/01 09:22:34;;;;;;;45.27;28.77;;;2.90;99.90;;;;;;5052718;28;20212;-77
2023/03/01 09:25:01;;;;;;;42.93;27.53;;;3.00;99.90;;;;;;5053398;28;20282;-80
2023/03/01 09:27:28;;;;;;;45.53;29.97;;;3.10;99.90;;;;;;5052701;28;20216;-80
2023/03/01 09:29:56;;;;;;;45.00;30.03;;;3.30;99.90;;;;;;5054090;28;20204;-79
2023/03/01 09:32:24;;;;;;;44.37;30.03;;;3.40;99.90;;;;;;5071358;28;20201;-77
2023/03/01 09:35:04;;;;;;;49.20;30.97;;;3.50;99.90;;;;;;5072464;28;20200;-77
2023/03/01 09:37:32;;;;;;;52.70;32.40;;;3.60;99.90;;;;;;5052964;28;20213;-77
2023/03/01 09:39:59;;;;;;;46.70;30.10;;;3.70;99.90;;;;;;5053213;28;20221;-77
2023/03/01 09:42:28;;;;;;;52.40;33.57;;;3.90;99.90;;;;;;5053219;28;20213;-80
2023/03/01 09:45:00;;;;;;;52.33;33.00;;;4.00;99.90;;;;;;5053764;28;20198;-79
2023/03/01 09:47:31;;;;;;;50.23;33.67;;;4.10;99.90;;;;;;5063795;28;20288;-78
2023/03/01 09:50:05;;;;;;;51.50;32.90;;;4.10;99.90;;;;;;5071637;28;20223;-77
2023/03/01 09:52:39;;;;;;;50.93;33.17;;;4.10;99.90;;;;;;5065003;28;20602;-77
2023/03/01 09:55:12;;;;;;;50.00;31.43;;;4.20;99.90;;;;;;5052183;28;20201;-77
2023/03/01 09:57:47;;;;;;;49.93;32.73;;;4.20;99.90;;;;;;5051490;28;20206;-78
2023/03/01 10:00:31;;;;;;;51.27;31.87;;;4.20;99.90;;;;;;5052204;28;20613;-79
2023/03/01 10:03:09;;;;;;;45.50;30.53;;;4.30;99.90;;;;;;5052249;28;20200;-80
2023/03/01 10:05:45;;;;;;;46.37;29.77;;;4.40;99.90;;;;;;5053205;28;20301;-79
2023/03/01 10:08:33;;;;;;;40.77;28.80;;;4.50;99.90;;;;;;5052647;28;20233;-79
2023/03/01 10:11:00;;;;;;;43.60;29.03;;;4.60;99.90;;;;;;5052617;28;20237;-79
2023/03/01 10:13:34;;;;;;;37.27;27.20;;;4.60;99.90;;;;;;5052876;28;20745;-80
2023/03/01 10:16:10;;;;;;;40.63;27.67;;;4.70;99.90;;;;;;5035573;28;20196;-79
2023/03/01 10:18:40;;;;;;;39.20;26.63;;;4.80;99.90;;;;;;5052259;28;20208;-79
2023/03/01 10:21:17;;;;;;;39.50;25.80;;;4.90;99.90;;;;;;5052738;28;20504;-80
2023/03/01 10:23:44;;;;;;;38.20;27.10;;;5.00;99.90;;;;;;5052554;28;20208;-79
2023/03/01 10:26:28;;;;;;;34.80;24.50;;;5.00;99.90;;;;;;5052614;28;20199;-79
2023/03/01 10:29:02;;;;;;;34.00;24.50;;;5.10;99.90;;;;;;5052396;28;20214;-79
2023/03/01 10:31:38;;;;;;;33.23;25.13;;;5.30;99.90;;;;;;5052156;28;20209;-79
2023/03/01 10:34:10;;;;;;;35.33;23.80;;;5.40;99.90;;;;;;5052209;28;20602;-79
2023/03/01 10:36:40;;;;;;;29.33;23.10;;;5.40;99.90;;;;;;5052289;28;20292;-79
2023/03/01 10:39:14;;;;;;;29.27;21.97;;;5.50;99.90;;;;;;5051989;28;20201;-79
2023/03/01 10:41:55;;;;;;;22.40;19.43;;;5.60;99.90;;;;;;5052348;28;20535;-79
2023/03/01 10:44:38;;;;;;;26.20;19.70;;;5.70;99.90;;;;;;5052391;28;20197;-81
2023/03/01 10:47:05;;;;;;;24.53;18.90;;;5.70;99.90;;;;;;5052025;28;20198;-80
2023/03/01 10:49:36;;;;;;;22.57;18.90;;;5.80;99.90;;;;;;5052009;28;20249;-78
2023/03/01 10:52:19;;;;;;;25.13;19.67;;;6.00;99.90;;;;;;5051770;28;20297;-79
2023/03/01 10:54:54;;;;;;;24.57;18.90;;;6.10;99.90;;;;;;5052284;28;20289;-78
2023/03/01 10:57:35;;;;;;;20.03;16.53;;;6.10;99.90;;;;;;5052376;28;20477;-79
2023/03/01 11:00:25;;;;;;;20.67;15.83;;;6.20;99.90;;;;;;5051772;28;20204;-79
2023/03/01 11:03:04;;;;;;;16.70;13.50;;;6.30;99.90;;;;;;5052569;28;20194;-79
2023/03/01 11:05:33;;;;;;;19.57;15.77;;;6.40;99.90;;;;;;5052329;28;20197;-78
2023/03/01 11:08:02;;;;;;;18.07;14.17;;;6.50;99.90;;;;;;5051291;28;20304;-78
2023/03/01 11:10:32;;;;;;;16.70;12.87;;;6.60;99.90;;;;;;5054188;28;20232;-79
2023/03/01 11:13:14;;;;;;;15.70;12.67;;;6.70;99.90;;;;;;5058494;28;20660;-79
2023/03/01 11:15:40;;;;;;;15.07;11.70;;;6.70;99.90;;;;;;5063773;28;20212;-78
2023/03/01 11:18:20;;;;;;;12.20;10.17;;;6.70;99.90;;;;;;5065409;28;20591;-79
2023/03/01 11:20:50;;;;;;;12.03;10.10;;;6.70;99.90;;;;;;5061485;28;20203;-81
2023/03/01 11:23:18;;;;;;;12.23;9.77;;;6.80;99.90;;;;;;5070192;28;20272;-78
2023/03/01 11:25:48;;;;;;;12.40;9.27;;;6.90;99.90;;;;;;5070623;28;20255;-77
2023/03/01 11:28:18;;;;;;;13.97;9.60;;;6.90;99.90;;;;;;5070770;28;20291;-79
2023/03/01 11:30:50;;;;;;;13.07;8.70;;;7.00;99.90;;;;;;5066120;28;20613;-80
2023/03/01 11:33:25;;;;;;;13.07;9.67;;;7.00;99.90;;;;;;5051041;28;20276;-78
2023/03/01 11:36:01;;;;;;;14.30;10.17;;;7.10;99.90;;;;;;5064993;28;20280;-78
2023/03/01 11:38:29;;;;;;;13.10;10.53;;;7.10;99.90;;;;;;5065949;28;20312;-78
2023/03/01 11:41:05;;;;;;;14.73;10.33;;;7.40;99.90;;;;;;5067603;28;20315;-76
2023/03/01 11:43:38;;;;;;;11.40;9.63;;;7.40;99.90;;;;;;5071169;28;20853;-77
2023/03/01 11:46:29;;;;;;;11.00;8.27;;;7.60;99.90;;;;;;5067158;28;20246;-79
2023/03/01 11:49:12;;;;;;;10.67;9.13;;;7.60;99.90;;;;;;5070178;28;20209;-79
2023/03/01 11:51:54;;;;;;;10.50;9.23;;;7.80;99.90;;;;;;5065021;28;20325;-78
2023/03/01 11:54:34;;;;;;;9.83;7.80;;;7.90;99.90;;;;;;5064821;28;20209;-77
2023/03/01 11:57:08;;;;;;;10.37;7.90;;;7.90;99.90;;;;;;5070714;28;20205;-77
2023/03/01 12:00:03;;;;;;;11.37;8.70;;;7.90;99.90;;;;;;5052956;28;20202;-77
2023/03/01 12:02:49;;;;;;;8.87;7.87;;;7.90;99.90;;;;;;5058849;28;20628;-77
2023/03/01 12:05:44;;;;;;;9.47;7.13;;;8.00;99.90;;;;;;5070359;28;20201;-80
2023/03/01 12:08:17;;;;;;;8.77;7.73;;;7.80;99.90;;;;;;5060026;28;20563;-79
2023/03/01 12:10:55;;;;;;;8.47;7.57;;;7.80;99.90;;;;;;5049865;28;20237;-79
2023/03/01 12:13:50;;;;;;;11.00;7.40;;;7.90;99.90;;;;;;5065014;28;20197;-78
2023/03/01 12:16:29;;;;;;;11.37;7.97;;;8.00;99.90;;;;;;5057329;28;20274;-79
2023/03/01 12:19:34;;;;;;;11.67;7.50;;;8.00;99.90;;;;;;5051565;28;20234;-80
2023/03/01 12:22:15;;;;;;;11.03;8.37;;;8.00;99.90;;;;;;5049949;28;20271;-80
2023/03/01 12:25:05;;;;;;;12.70;8.37;;;8.00;99.90;;;;;;5049389;28;20289;-80
2023/03/01 12:27:51;;;;;;;10.80;8.60;;;7.90;99.90;;;;;;5046593;28;20202;-79
2023/03/01 12:30:27;;;;;;;9.93;8.47;;;7.90;99.90;;;;;;5061250;28;20221;-80
2023/03/01 12:33:14;;;;;;;12.77;8.43;;;7.80;99.90;;;;;;5070596;28;20199;-79
2023/03/01 12:36:09;;;;;;;10.17;8.67;;;7.90;99.90;;;;;;5051134;28;20205;-81
2023/03/01 12:38:43;;;;;;;11.33;8.57;;;8.00;99.90;;;;;;5049303;28;20201;-80
2023/03/01 12:41:38;;;;;;;10.27;8.70;;;8.10;99.90;;;;;;5053800;28;20329;-80
2023/03/01 12:44:16;;;;;;;11.00;9.00;;;8.20;99.90;;;;;;5052864;28;20284;-80
2023/03/01 12:46:58;;;;;;;11.80;8.77;;;8.20;99.90;;;;;;5055424;28;20288;-79
2023/03/01 12:49:31;;;;;;;11.37;8.87;;;8.20;99.90;;;;;;5054404;28;20213;-80